createdAt,value
2022-08-18T00:01:15.829Z,97391.63
2022-08-18T00:03:55.810Z,97389.56
2022-08-18T00:06:29.371Z,97392.94
2022-08-18T00:09:05.439Z,97398.79
2022-08-18T00:11:41.035Z,97397.70
2022-08-18T00:14:21.483Z,97403.09
2022-08-18T00:16:54.762Z,97400.37
2022-08-18T00:19:46.151Z,97402.89
2022-08-18T00:22:16.338Z,97403.21
2022-08-18T00:24:48.183Z,97402.58
2022-08-18T00:27:28.307Z,97398.83
2022-08-18T00:30:00.554Z,97407.66
2022-08-18T00:32:33.780Z,97410.88
2022-08-18T00:35:18.453Z,97412.09
2022-08-18T00:37:47.634Z,97409.80
2022-08-18T00:40:21.827Z,97405.83
2022-08-18T00:42:53.877Z,97402.55
2022-08-18T00:45:27.301Z,97403.86
2022-08-18T00:47:56.051Z,97408.20
2022-08-18T00:50:34.810Z,97405.71
2022-08-18T00:53:13.060Z,97403.20
2022-08-18T00:55:53.896Z,97406.73
2022-08-18T00:58:32.451Z,97408.58
2022-08-18T01:01:06.467Z,97411.17
2022-08-18T01:03:40.040Z,97415.21
2022-08-18T01:06:40.904Z,97415.71
2022-08-18T01:09:09.727Z,97413.85
2022-08-18T01:11:39.517Z,97417.14
2022-08-18T01:14:09.734Z,97409.77
2022-08-18T01:16:57.358Z,97410.20
2022-08-18T01:19:45.796Z,97410.83
2022-08-18T01:22:47.853Z,97414.53
2022-08-18T01:25:37.537Z,97416.41
2022-08-18T01:28:06.533Z,97408.91
2022-08-18T01:30:50.580Z,97408.86
2022-08-18T01:33:19.526Z,97402.79
2022-08-18T01:35:50.042Z,97401.58
2022-08-18T01:38:21.061Z,97406.33
2022-08-18T01:41:27.425Z,97412.59
2022-08-18T01:43:39.362Z,97418.65
2022-08-18T01:46:09.165Z,97413.86
2022-08-18T01:48:39.436Z,97405.56
2022-08-18T01:51:09.979Z,97407.27
2022-08-18T01:53:38.141Z,97417.36
2022-08-18T01:56:07.369Z,97416.85
2022-08-18T01:58:36.947Z,97409.58
2022-08-18T02:01:06.658Z,97401.59
2022-08-18T02:03:38.059Z,97391.94
2022-08-18T02:06:11.178Z,97392.88
2022-08-18T02:08:43.600Z,97394.89
2022-08-18T02:11:15.162Z,97393.66
2022-08-18T02:13:43.171Z,97385.73
2022-08-18T02:16:11.156Z,97385.41
2022-08-18T02:18:48.344Z,97398.63
2022-08-18T02:21:20.620Z,97404.95
2022-08-18T02:23:53.580Z,97401.64
2022-08-18T02:26:23.625Z,97394.06
2022-08-18T02:28:52.191Z,97393.95
2022-08-18T02:31:22.946Z,97396.30
2022-08-18T02:33:52.737Z,97399.20
2022-08-18T02:36:25.386Z,97399.43
2022-08-18T02:38:59.760Z,97399.98
2022-08-18T02:41:29.857Z,97401.95
2022-08-18T02:43:58.678Z,97394.33
2022-08-18T02:46:29.280Z,97390.36
2022-08-18T02:49:00.656Z,97392.67
2022-08-18T02:51:28.798Z,97397.74
2022-08-18T02:54:00.846Z,97386.29
2022-08-18T02:56:40.175Z,97380.69
2022-08-18T02:59:15.428Z,97380.42
2022-08-18T03:01:47.748Z,97381.88
2022-08-18T03:04:22.898Z,97383.89
2022-08-18T03:06:52.504Z,97379.92
2022-08-18T03:09:20.970Z,97385.52
2022-08-18T03:11:49.207Z,97385.02
2022-08-18T03:14:17.220Z,97390.02
2022-08-18T03:16:54.160Z,97393.14
2022-08-18T03:19:28.713Z,97397.44
2022-08-18T03:22:02.704Z,97398.30
2022-08-18T03:24:33.161Z,97402.34
2022-08-18T03:27:06.235Z,97402.93
2022-08-18T03:29:36.074Z,97401.86
2022-08-18T03:32:06.982Z,97407.41
2022-08-18T03:34:35.443Z,97414.48
2022-08-18T03:37:03.658Z,97416.80
2022-08-18T03:39:31.859Z,97417.73
2022-08-18T03:42:01.475Z,97417.09
2022-08-18T03:44:32.216Z,97418.20
2022-08-18T03:47:03.257Z,97418.95
2022-08-18T03:49:34.159Z,97420.52
2022-08-18T03:52:03.188Z,97421.70
2022-08-18T03:54:34.452Z,97418.96
2022-08-18T03:57:02.685Z,97417.02
2022-08-18T03:59:32.222Z,97414.87
2022-08-18T04:02:03.965Z,97420.10
2022-08-18T04:04:32.393Z,97424.56
2022-08-18T04:07:08.980Z,97424.73
2022-08-18T04:09:38.641Z,97426.88
2022-08-18T04:12:16.384Z,97427.20
2022-08-18T04:14:48.759Z,97433.59
2022-08-18T04:17:24.005Z,97439.39
2022-08-18T04:19:54.046Z,97439.31
2022-08-18T04:22:23.363Z,97430.27
2022-08-18T04:24:51.937Z,97432.70
2022-08-18T04:27:21.527Z,97437.77
2022-08-18T04:29:50.069Z,97432.79
2022-08-18T04:32:19.576Z,97433.95
2022-08-18T04:34:49.600Z,97438.14
2022-08-18T04:37:17.966Z,97435.14
2022-08-18T04:39:46.042Z,97433.93
2022-08-18T04:42:15.201Z,97438.02
2022-08-18T04:44:43.430Z,97447.17
2022-08-18T04:47:13.440Z,97443.39
2022-08-18T04:49:41.456Z,97442.17
2022-08-18T04:52:40.789Z,97434.31
2022-08-18T04:55:11.058Z,97446.71
2022-08-18T04:57:39.529Z,97437.27
2022-08-18T05:00:09.152Z,97437.88
2022-08-18T05:02:38.147Z,97430.08
2022-08-18T05:05:07.189Z,97438.44
2022-08-18T05:07:35.373Z,97453.86
2022-08-18T05:10:04.091Z,97453.44
2022-08-18T05:12:32.178Z,97464.56
2022-08-18T05:15:00.291Z,97460.33
2022-08-18T05:17:30.501Z,97456.30
2022-08-18T05:20:01.600Z,97434.15
2022-08-18T05:22:31.951Z,97422.58
2022-08-18T05:25:00.714Z,97419.81
2022-08-18T05:27:35.375Z,97428.56
2022-08-18T05:30:05.521Z,97417.36
2022-08-18T05:32:48.406Z,97407.39
2022-08-18T05:35:31.246Z,97424.04
2022-08-18T05:38:26.890Z,97438.50
2022-08-18T05:41:27.934Z,97433.44
2022-08-18T05:43:57.608Z,97445.75
2022-08-18T05:46:55.261Z,97430.45
2022-08-18T05:49:26.340Z,97416.38
2022-08-18T05:52:01.712Z,97406.59
2022-08-18T05:54:57.667Z,97404.73
2022-08-18T05:57:31.512Z,97432.83
2022-08-18T06:00:04.578Z,97418.24
2022-08-18T06:03:00.191Z,97436.40
2022-08-18T06:05:32.852Z,97445.09
2022-08-18T06:08:22.688Z,97435.61
2022-08-18T06:10:51.619Z,97442.33
2022-08-18T06:13:20.800Z,97405.74
2022-08-18T06:16:29.394Z,97410.02
2022-08-18T06:19:26.881Z,97415.56
2022-08-18T06:22:12.149Z,97367.14
2022-08-18T06:24:40.631Z,97401.86
2022-08-18T06:27:22.795Z,97405.85
2022-08-18T06:30:05.030Z,97395.77
2022-08-18T06:32:53.221Z,97363.86
2022-08-18T06:35:38.014Z,97361.81
2022-08-18T06:38:46.128Z,97371.15
2022-08-18T06:41:38.081Z,97361.64
2022-08-18T06:44:29.209Z,97361.70
2022-08-18T06:47:10.758Z,97370.03
2022-08-18T06:49:49.399Z,97371.38
2022-08-18T06:52:23.940Z,97375.63
2022-08-18T06:54:54.379Z,97378.14
2022-08-18T06:57:28.054Z,97378.30
2022-08-18T07:00:00.537Z,97377.02
2022-08-18T07:02:47.340Z,97374.26
2022-08-18T07:05:15.385Z,97373.98
2022-08-18T07:07:44.136Z,97368.16
2022-08-18T07:10:15.271Z,97367.69
2022-08-18T07:12:44.100Z,97365.61
2022-08-18T07:15:13.560Z,97359.95
2022-08-18T07:17:44.077Z,97357.86
2022-08-18T07:20:18.047Z,97349.17
2022-08-18T07:23:00.367Z,97354.55
2022-08-18T07:25:39.522Z,97353.86
2022-08-18T07:28:26.833Z,97352.39
2022-08-18T07:31:17.466Z,97349.86
2022-08-18T07:33:56.007Z,97346.65
2022-08-18T07:36:33.990Z,97346.64
2022-08-18T07:39:14.589Z,97359.41
2022-08-18T07:41:44.887Z,97358.00
2022-08-18T07:44:19.802Z,97358.41
2022-08-18T07:47:01.245Z,97337.32
2022-08-18T07:49:35.469Z,97331.27
2022-08-18T07:52:24.221Z,97329.29
2022-08-18T07:55:24.040Z,97330.85
2022-08-18T07:58:01.602Z,97329.83
2022-08-18T08:00:58.038Z,97332.61
2022-08-18T08:04:01.050Z,97339.48
2022-08-18T08:07:06.095Z,97337.20
2022-08-18T08:09:52.166Z,97345.02
2022-08-18T08:12:35.606Z,97333.68
2022-08-18T08:15:27.268Z,97335.63
2022-08-18T08:18:07.801Z,97329.45
2022-08-18T08:20:57.737Z,97329.95
2022-08-18T08:23:52.727Z,97332.59
2022-08-18T08:26:26.855Z,97334.88
2022-08-18T08:29:18.795Z,97327.11
2022-08-18T08:32:22.565Z,97322.45
2022-08-18T08:35:05.497Z,97316.50
2022-08-18T08:37:44.816Z,97318.80
2022-08-18T08:40:28.111Z,97324.34
2022-08-18T08:43:09.213Z,97321.49
2022-08-18T08:45:45.209Z,97325.90
2022-08-18T08:48:38.059Z,97327.05
2022-08-18T08:51:38.699Z,97322.07
2022-08-18T08:54:29.867Z,97324.45
2022-08-18T08:57:01.588Z,97322.17
2022-08-18T08:59:29.697Z,97327.82
2022-08-18T09:02:32.307Z,97326.91
2022-08-18T09:05:13.931Z,97323.59
2022-08-18T09:08:14.382Z,97321.60
2022-08-18T09:11:07.341Z,97320.11
2022-08-18T09:13:57.431Z,97319.80
2022-08-18T09:17:00.184Z,97321.65
2022-08-18T09:19:48.920Z,97323.38
2022-08-18T09:22:24.098Z,97320.25
2022-08-18T09:24:56.670Z,97316.67
2022-08-18T09:27:53.829Z,97316.02
2022-08-18T09:31:09.015Z,97314.37
2022-08-18T09:33:48.528Z,97314.24
2022-08-18T09:36:35.205Z,97313.23
2022-08-18T09:39:47.057Z,97310.09
2022-08-18T09:42:30.089Z,97306.34
2022-08-18T09:45:02.545Z,97305.76
2022-08-18T09:47:32.273Z,97302.06
2022-08-18T09:50:06.905Z,97297.80
2022-08-18T09:52:39.784Z,97292.84
2022-08-18T09:55:28.944Z,97300.91
2022-08-18T09:58:47.896Z,97308.63
2022-08-18T10:01:40.423Z,97289.21
2022-08-18T10:04:14.658Z,97287.16
2022-08-18T10:06:48.295Z,97288.68
2022-08-18T10:09:46.613Z,97289.61
2022-08-18T10:12:42.814Z,97284.42
2022-08-18T10:15:39.000Z,97284.41
2022-08-18T10:18:34.855Z,97283.88
2022-08-18T10:21:12.064Z,97282.92
2022-08-18T10:24:32.239Z,97282.55
2022-08-18T10:26:56.582Z,97284.37
2022-08-18T10:29:26.232Z,97284.23
2022-08-18T10:32:02.161Z,97289.73
2022-08-18T10:34:51.652Z,97292.22
2022-08-18T10:37:33.700Z,97300.58
2022-08-18T10:40:13.766Z,97293.92
2022-08-18T10:42:48.958Z,97295.58
2022-08-18T10:46:24.607Z,97290.20
2022-08-18T10:48:41.968Z,97294.33
2022-08-18T10:51:57.884Z,97288.27
2022-08-18T10:54:45.615Z,97288.28
2022-08-18T10:57:40.973Z,97283.97
2022-08-18T11:00:19.350Z,97281.63
2022-08-18T11:03:42.820Z,97280.12
2022-08-18T11:06:18.299Z,97278.10
2022-08-18T11:08:55.187Z,97286.92
2022-08-18T11:11:40.020Z,97290.31
2022-08-18T11:14:18.885Z,97288.66
2022-08-18T11:16:49.962Z,97288.25
2022-08-18T11:19:23.357Z,97279.67
2022-08-18T11:21:53.391Z,97282.11
2022-08-18T11:24:22.034Z,97292.89
2022-08-18T11:29:43.619Z,97280.30
2022-08-18T11:32:31.249Z,97271.46
2022-08-18T11:35:11.073Z,97275.08
2022-08-18T11:43:39.048Z,97270.55
2022-08-18T11:46:30.043Z,97267.23
2022-08-18T11:49:01.863Z,97269.39
2022-08-18T11:51:34.986Z,97276.55
2022-08-18T11:54:31.253Z,97273.64
2022-08-18T11:57:40.892Z,97266.36
2022-08-18T12:00:57.108Z,97263.13
2022-08-18T12:03:45.419Z,97262.80
2022-08-18T12:06:26.985Z,97264.98
2022-08-18T12:09:07.156Z,97263.41
2022-08-18T12:12:01.435Z,97249.83
2022-08-18T12:14:51.777Z,97260.59
2022-08-18T12:17:19.935Z,97264.48
2022-08-18T12:19:50.487Z,97258.33
2022-08-18T12:22:26.263Z,97251.90
2022-08-18T12:24:55.951Z,97251.20
2022-08-18T12:27:31.959Z,97246.08
2022-08-18T12:30:03.042Z,97249.91
2022-08-18T12:32:46.708Z,97253.31
2022-08-18T12:35:21.727Z,97260.06
2022-08-18T12:37:59.493Z,97249.13
2022-08-18T12:40:29.743Z,97243.23
2022-08-18T12:42:58.249Z,97238.83
2022-08-18T12:45:28.059Z,97240.19
2022-08-18T12:48:00.470Z,97237.70
2022-08-18T12:50:31.492Z,97242.27
2022-08-18T12:53:02.979Z,97243.96
2022-08-18T12:55:44.110Z,97236.56
2022-08-18T12:58:13.827Z,97226.61
2022-08-18T13:00:43.402Z,97224.73
2022-08-18T13:03:11.702Z,97223.58
2022-08-18T13:05:40.688Z,97221.39
2022-08-18T13:08:30.676Z,97222.91
2022-08-18T13:11:14.755Z,97224.10
2022-08-18T13:13:53.178Z,97215.83
2022-08-18T13:16:39.119Z,97210.20
2022-08-18T13:19:18.037Z,97211.75
2022-08-18T13:21:46.267Z,97216.16
2022-08-18T13:24:16.480Z,97218.98
2022-08-18T13:26:52.158Z,97209.09
2022-08-18T13:29:22.236Z,97203.44
2022-08-18T13:31:57.901Z,97205.80
2022-08-18T13:34:29.817Z,97198.81
2022-08-18T13:36:59.647Z,97196.96
2022-08-18T13:39:33.791Z,97203.44
2022-08-18T13:42:26.697Z,97206.23
2022-08-18T13:44:55.182Z,97201.38
2022-08-18T13:47:29.339Z,97197.69
2022-08-18T13:50:00.030Z,97198.56
2022-08-18T13:52:41.171Z,97194.76
2022-08-18T13:55:16.734Z,97189.79
2022-08-18T13:57:50.223Z,97190.64
2022-08-18T14:00:29.685Z,97186.77
2022-08-18T14:03:03.516Z,97186.76
2022-08-18T14:05:36.803Z,97185.66
2022-08-18T14:08:21.365Z,97176.73
2022-08-18T14:10:53.130Z,97182.30
2022-08-18T14:13:24.653Z,97179.63
2022-08-18T14:15:56.125Z,97171.14
2022-08-18T14:18:29.147Z,97170.65
2022-08-18T14:21:22.932Z,97166.27
2022-08-18T14:24:14.312Z,97170.81
2022-08-18T14:26:50.048Z,97166.75
2022-08-18T14:29:45.665Z,97170.18
2022-08-18T14:32:17.949Z,97168.88
2022-08-18T14:34:50.774Z,97168.31
2022-08-18T14:37:20.807Z,97164.88
2022-08-18T14:39:53.873Z,97161.73
2022-08-18T14:42:41.010Z,97160.11
2022-08-18T14:45:27.836Z,97167.18
2022-08-18T14:48:06.806Z,97165.98
2022-08-18T14:50:36.932Z,97165.30
2022-08-18T14:53:06.585Z,97169.30
2022-08-18T14:55:35.930Z,97168.17
2022-08-18T14:58:07.148Z,97165.71
2022-08-18T15:00:53.494Z,97167.94
2022-08-18T15:03:31.105Z,97167.38
2022-08-18T15:06:04.753Z,97168.26
2022-08-18T15:08:38.947Z,97164.48
2022-08-18T15:11:19.022Z,97165.95
2022-08-18T15:13:55.087Z,97168.80
2022-08-18T15:16:26.907Z,97173.46
2022-08-18T15:19:04.038Z,97176.61
2022-08-18T15:22:10.688Z,97177.88
2022-08-18T15:25:02.757Z,97181.16
2022-08-18T15:27:42.191Z,97185.92
2022-08-18T15:30:19.494Z,97187.36
2022-08-18T15:32:49.988Z,97181.98
2022-08-18T15:35:19.928Z,97182.69
2022-08-18T15:37:51.078Z,97181.64
2022-08-18T15:40:35.603Z,97182.67
2022-08-18T15:43:10.114Z,97184.45
2022-08-18T15:45:56.482Z,97185.92
2022-08-18T15:48:28.589Z,97190.39
2022-08-18T15:50:57.393Z,97194.45
2022-08-18T15:53:45.698Z,97194.02
2022-08-18T15:56:23.485Z,97194.12
2022-08-18T15:58:54.787Z,97194.52
2022-08-18T16:01:32.443Z,97196.92
2022-08-18T16:04:04.212Z,97202.61
2022-08-18T16:06:34.378Z,97200.90
2022-08-18T16:09:05.359Z,97203.98
2022-08-18T16:11:34.008Z,97202.34
2022-08-18T16:14:04.274Z,97208.38
2022-08-18T16:16:36.210Z,97210.52
2022-08-18T16:19:07.043Z,97213.74
2022-08-18T16:21:39.906Z,97220.28
2022-08-18T16:24:08.780Z,97223.71
2022-08-18T16:26:36.912Z,97227.12
2022-08-18T16:29:05.489Z,97229.90
2022-08-18T16:31:36.563Z,97228.48
2022-08-18T16:34:06.029Z,97226.02
2022-08-18T16:36:35.175Z,97227.52
2022-08-18T16:39:04.610Z,97227.98
2022-08-18T16:41:34.989Z,97232.25
2022-08-18T16:44:03.377Z,97230.41
2022-08-18T16:46:32.841Z,97230.64
2022-08-18T16:49:07.090Z,97228.45
2022-08-18T16:51:36.460Z,97231.77
2022-08-18T16:54:05.603Z,97240.14
2022-08-18T16:56:35.958Z,97241.61
2022-08-18T16:59:22.565Z,97244.52
2022-08-18T17:02:09.062Z,97246.36
2022-08-18T17:04:37.672Z,97248.05
2022-08-18T17:07:07.248Z,97249.16
2022-08-18T17:09:38.713Z,97248.34
2022-08-18T17:12:07.189Z,97254.33
2022-08-18T17:14:37.048Z,97254.89
2022-08-18T17:17:05.904Z,97256.79
2022-08-18T17:19:35.475Z,97260.81
2022-08-18T17:22:07.601Z,97258.22
2022-08-18T17:24:35.927Z,97257.86
2022-08-18T17:27:25.693Z,97254.31
2022-08-18T17:30:07.618Z,97258.13
2022-08-18T17:32:46.957Z,97257.89
2022-08-18T17:35:28.577Z,97257.52
2022-08-18T17:38:07.418Z,97264.58
2022-08-18T17:40:54.703Z,97259.14
2022-08-18T17:43:26.175Z,97262.61
2022-08-18T17:45:57.739Z,97266.66
2022-08-18T17:48:41.006Z,97263.20
2022-08-18T17:51:33.622Z,97265.92
2022-08-18T17:54:27.855Z,97282.66
2022-08-18T17:57:12.702Z,97279.45
2022-08-18T18:00:11.824Z,97296.79
2022-08-18T18:02:42.701Z,97300.02
2022-08-18T18:05:15.542Z,97307.83
2022-08-18T18:07:50.917Z,97320.08
2022-08-18T18:13:34.436Z,97305.68
2022-08-18T18:16:25.519Z,97312.60
2022-08-18T18:19:01.177Z,97302.26
2022-08-18T18:21:55.381Z,97305.15
2022-08-18T18:24:30.960Z,97305.73
2022-08-18T18:27:00.497Z,97304.02
2022-08-18T18:29:37.724Z,97296.82
2022-08-18T18:32:28.247Z,97295.98
2022-08-18T18:35:15.322Z,97317.80
2022-08-18T18:38:03.218Z,97325.41
2022-08-18T18:40:39.768Z,97328.55
2022-08-18T18:43:34.809Z,97334.45
2022-08-18T18:46:23.828Z,97332.84
2022-08-18T18:49:13.575Z,97335.59
2022-08-18T18:52:01.274Z,97336.13
2022-08-18T18:54:53.791Z,97341.34
2022-08-18T18:58:04.803Z,97343.22
2022-08-18T19:00:59.502Z,97339.70
2022-08-18T19:04:04.146Z,97356.67
2022-08-18T19:06:45.735Z,97348.05
2022-08-18T19:09:54.200Z,97352.73
2022-08-18T19:12:31.146Z,97363.89
2022-08-18T19:15:14.953Z,97369.81
2022-08-18T19:18:05.358Z,97371.39
2022-08-18T19:22:01.636Z,97370.79
2022-08-18T19:23:49.953Z,97364.38
2022-08-18T19:26:27.166Z,97373.16
2022-08-18T19:29:11.976Z,97363.41
2022-08-18T19:31:51.104Z,97366.52
2022-08-18T19:34:36.754Z,97371.06
2022-08-18T19:37:41.134Z,97365.52
2022-08-18T19:40:21.922Z,97372.71
2022-08-18T19:42:59.631Z,97378.67
2022-08-18T19:45:32.127Z,97383.64
2022-08-18T19:48:18.288Z,97383.85
2022-08-18T19:51:12.500Z,97379.11
2022-08-18T19:53:52.627Z,97382.34
2022-08-18T19:56:34.779Z,97377.12
2022-08-18T19:59:19.588Z,97381.91
2022-08-18T20:01:52.187Z,97384.95
2022-08-18T20:04:27.277Z,97382.26
2022-08-18T20:07:14.724Z,97393.39
2022-08-18T20:10:01.992Z,97386.61
2022-08-18T20:12:38.893Z,97392.05
2022-08-18T20:15:17.900Z,97386.48
2022-08-18T20:18:03.381Z,97394.20
2022-08-18T20:20:34.974Z,97385.59
2022-08-18T20:23:34.308Z,97389.73
2022-08-18T20:26:02.459Z,97384.33
2022-08-18T20:28:39.822Z,97387.92
2022-08-18T20:31:16.766Z,97377.98
2022-08-18T20:34:26.058Z,97389.59
2022-08-18T20:36:58.199Z,97389.70
2022-08-18T20:39:41.341Z,97395.55
2022-08-18T20:42:36.318Z,97396.87
2022-08-18T20:45:13.155Z,97395.41
2022-08-18T20:47:59.243Z,97396.45
2022-08-18T20:50:39.343Z,97396.23
2022-08-18T20:53:43.126Z,97390.79
2022-08-18T20:56:44.044Z,97405.66
2022-08-18T20:59:22.339Z,97407.28
2022-08-18T21:02:06.195Z,97410.20
2022-08-18T21:04:40.131Z,97407.61
2022-08-18T21:07:25.618Z,97405.59
2022-08-18T21:10:43.104Z,97414.39
2022-08-18T21:13:11.006Z,97408.02
2022-08-18T21:15:39.123Z,97414.70
2022-08-18T21:18:19.493Z,97413.97
2022-08-18T21:20:50.320Z,97408.30
2022-08-18T21:23:25.682Z,97408.88
2022-08-18T21:25:59.697Z,97415.45
2022-08-18T21:28:34.980Z,97409.81
2022-08-18T21:31:30.794Z,97407.64
2022-08-18T21:33:56.810Z,97403.23
2022-08-18T21:36:31.804Z,97404.44
2022-08-18T21:39:14.286Z,97412.51
2022-08-18T21:41:46.931Z,97407.25
2022-08-18T21:44:34.057Z,97400.16
2022-08-18T21:47:10.107Z,97402.59
2022-08-18T21:49:38.125Z,97399.82
2022-08-18T21:52:07.803Z,97401.75
2022-08-18T21:54:37.562Z,97400.73
2022-08-18T21:57:22.632Z,97401.65
2022-08-18T22:00:20.541Z,97405.27
2022-08-18T22:02:52.267Z,97408.65
2022-08-18T22:05:58.086Z,97404.26
2022-08-18T22:08:24.539Z,97401.29
2022-08-18T22:12:01.351Z,97405.07
2022-08-18T22:14:53.877Z,97399.66
2022-08-18T22:17:25.522Z,97394.93
2022-08-18T22:19:54.081Z,97396.81
2022-08-18T22:22:58.565Z,97399.77
2022-08-18T22:25:26.926Z,97405.31
2022-08-18T22:27:57.621Z,97418.91
2022-08-18T22:30:25.638Z,97431.80
2022-08-18T22:32:54.334Z,97428.90
2022-08-18T22:35:23.981Z,97426.87
2022-08-18T22:37:52.140Z,97417.41
2022-08-18T22:40:21.663Z,97411.37
2022-08-18T22:42:50.120Z,97411.91
2022-08-18T22:45:20.709Z,97398.75
2022-08-18T22:47:49.196Z,97401.88
2022-08-18T22:50:17.533Z,97408.85
2022-08-18T22:52:48.435Z,97406.54
2022-08-18T22:55:21.725Z,97396.67
2022-08-18T22:57:55.654Z,97409.06
2022-08-18T23:00:26.568Z,97409.27
2022-08-18T23:02:55.573Z,97414.59
2022-08-18T23:05:23.827Z,97401.16
2022-08-18T23:07:52.072Z,97410.41
2022-08-18T23:10:21.371Z,97411.36
2022-08-18T23:12:49.511Z,97407.45
2022-08-18T23:15:19.537Z,97416.58
2022-08-18T23:17:49.119Z,97414.42
2022-08-18T23:20:19.351Z,97417.15
2022-08-18T23:22:48.566Z,97408.14
2022-08-18T23:25:17.331Z,97394.88
2022-08-18T23:27:45.359Z,97395.20
2022-08-18T23:30:15.083Z,97396.48
2022-08-18T23:32:44.286Z,97403.66
2022-08-18T23:35:12.358Z,97399.31
2022-08-18T23:37:41.578Z,97399.69
2022-08-18T23:40:16.559Z,97395.44
2022-08-18T23:42:44.717Z,97395.34
2022-08-18T23:45:12.769Z,97398.80
2022-08-18T23:47:41.452Z,97400.63
2022-08-18T23:50:11.455Z,97399.05
2022-08-18T23:52:40.241Z,97401.36
2022-08-18T23:55:12.668Z,97397.73
2022-08-18T23:57:40.709Z,97398.70
